Time;durP1;ratioP1;P1;durP2;ratioP2;P2;SDS_P1;SDS_P2;PMS_P1;PMS_P2;Temp;Humidity;BMP_temperature;BMP_pressure;BME280_temperature;BME280_humidity;BME280_pressure;Samples;Min_cycle;Max_cycle;Signal;HPM_P1;HPM_P2
2023/05/02 00:00:33;;;;;;;;;;;;;;;26.35;42.73;94363.09;5021882;28;7052;-62
2023/05/02 00:03:16;;;;;;;;;;;;;;;26.33;42.86;94368.38;5023652;28;7278;-63
2023/05/02 00:05:52;;;;;;;;;;;;;;;26.34;42.85;94367.09;5041534;28;9391;-63
2023/05/02 00:08:32;;;;;;;;;;;;;;;26.39;42.58;94366.31;5032076;28;7139;-62
2023/05/02 00:11:07;;;;;;;;;;;;;;;26.41;43.00;94376.81;5041307;28;7350;-63
2023/05/02 00:13:34;;;;;;;;;;;;;;;26.37;42.75;94363.31;5021755;28;9047;-63
2023/05/02 00:16:17;;;;;;;;;;;;;;;26.39;42.79;94369.06;5043578;28;7042;-62
2023/05/02 00:18:49;;;;;;;;;;;;;;;26.41;42.56;94363.03;5002032;28;9450;-62
2023/05/02 00:21:28;;;;;;;;;;;;;;;26.38;43.10;94353.78;5015194;28;9033;-62
2023/05/02 00:23:55;;;;;;;;;;;;;;;26.39;42.55;94351.75;5015254;28;9053;-63
2023/05/02 00:26:26;;;;;;;;;;;;;;;26.42;42.66;94356.25;5020040;28;7037;-62
2023/05/02 00:29:12;;;;;;;;;;;;;;;26.41;42.81;94360.25;5018351;28;7269;-62
2023/05/02 00:31:54;;;;;;;;;;;;;;;26.39;43.04;94362.78;5030866;28;7284;-63
2023/05/02 00:34:54;;;;;;;;;;;;;;;26.38;42.67;94351.00;5016725;28;8846;-62
2023/05/02 00:37:28;;;;;;;;;;;;;;;26.40;43.13;94356.03;5016376;28;7369;-62
2023/05/02 00:40:06;;;;;;;;;;;;;;;26.41;42.58;94355.50;5020519;28;8119;-62
2023/05/02 00:42:34;;;;;;;;;;;;;;;26.40;43.20;94354.03;5005200;28;7122;-62
2023/05/02 00:45:17;;;;;;;;;;;;;;;26.40;42.99;94350.50;5005097;28;9363;-62
2023/05/02 00:47:44;;;;;;;;;;;;;;;26.42;42.90;94356.25;5003383;28;7287;-63
2023/05/02 00:50:26;;;;;;;;;;;;;;;26.40;42.50;94353.28;5025977;28;7066;-63
2023/05/02 00:53:25;;;;;;;;;;;;;;;26.40;42.96;94356.78;5015102;28;7279;-62
2023/05/02 00:55:53;;;;;;;;;;;;;;;26.41;43.22;94347.22;4973208;28;9331;-63
2023/05/02 00:58:19;;;;;;;;;;;;;;;26.42;43.03;94347.97;4990277;28;8103;-62
2023/05/02 01:01:03;;;;;;;;;;;;;;;26.42;42.83;94345.22;4969384;28;7138;-63
2023/05/02 01:03:42;;;;;;;;;;;;;;;26.42;42.54;94350.75;4980928;28;8531;-62
2023/05/02 01:06:56;;;;;;;;;;;;;;;26.41;42.50;94350.00;4974152;28;8612;-62
2023/05/02 01:09:53;;;;;;;;;;;;;;;26.39;42.96;94351.75;4982038;28;7458;-62
2023/05/02 01:12:45;;;;;;;;;;;;;;;26.39;42.74;94349.00;4972039;28;7338;-62
2023/05/02 01:15:47;;;;;;;;;;;;;;;26.38;43.04;94342.75;4975580;28;7470;-62
2023/05/02 01:18:41;;;;;;;;;;;;;;;26.37;42.86;94354.28;4969040;28;7560;-62
2023/05/02 01:21:34;;;;;;;;;;;;;;;26.35;42.76;94346.53;4966962;28;7030;-63
2023/05/02 01:24:29;;;;;;;;;;;;;;;26.34;42.98;94347.78;4963423;28;8973;-63
2023/05/02 01:27:44;;;;;;;;;;;;;;;26.36;42.52;94347.31;4982376;28;9309;-62
2023/05/02 01:30:25;;;;;;;;;;;;;;;26.35;43.13;94348.56;4967126;28;7511;-62
2023/05/02 01:33:02;;;;;;;;;;;;;;;26.34;43.19;94349.81;5013362;28;8962;-62
2023/05/02 01:35:42;;;;;;;;;;;;;;;26.35;43.30;94348.56;5034782;28;8354;-63
2023/05/02 01:38:24;;;;;;;;;;;;;;;26.35;42.82;94354.06;5014953;28;8687;-63
2023/05/02 01:41:07;;;;;;;;;;;;;;;26.36;42.97;94347.31;5030453;28;9163;-63
2023/05/02 01:43:41;;;;;;;;;;;;;;;26.36;43.14;94348.03;5025083;28;7148;-62
2023/05/02 01:46:20;;;;;;;;;;;;;;;26.36;42.43;94341.78;5018373;28;9326;-62
2023/05/02 01:49:02;;;;;;;;;;;;;;;26.33;42.74;94346.31;5027088;28;7218;-62
2023/05/02 01:51:45;;;;;;;;;;;;;;;26.36;42.90;94350.78;5019719;28;7241;-62
2023/05/02 01:54:51;;;;;;;;;;;;;;;26.39;42.50;94357.28;5014889;28;7212;-62
2023/05/02 01:57:20;;;;;;;;;;;;;;;26.40;43.44;94353.28;4962960;28;7046;-63
2023/05/02 02:00:08;;;;;;;;;;;;;;;26.39;42.63;94358.03;4973940;28;7087;-62
2023/05/02 02:02:47;;;;;;;;;;;;;;;26.39;42.56;94351.75;4989750;28;7033;-62
2023/05/02 02:05:17;;;;;;;;;;;;;;;26.35;42.71;94357.56;4973980;28;7006;-62
2023/05/02 02:07:59;;;;;;;;;;;;;;;26.39;42.92;94351.75;4958251;28;7267;-62
2023/05/02 02:10:47;;;;;;;;;;;;;;;26.38;43.03;94362.03;4964999;28;8772;-62
2023/05/02 02:14:01;;;;;;;;;;;;;;;26.39;42.99;94354.53;4978336;28;7537;-62
2023/05/02 02:16:44;;;;;;;;;;;;;;;26.38;43.13;94362.03;4982411;28;8758;-62
2023/05/02 02:19:16;;;;;;;;;;;;;;;26.40;43.03;94364.31;4982714;28;7059;-63
2023/05/02 02:22:12;;;;;;;;;;;;;;;26.38;42.35;94364.81;4974169;28;9113;-62
2023/05/02 02:25:24;;;;;;;;;;;;;;;26.38;42.94;94367.56;4963400;28;8746;-62
2023/05/02 02:27:52;;;;;;;;;;;;;;;26.39;42.89;94362.78;4953899;28;7599;-62
2023/05/02 02:30:40;;;;;;;;;;;;;;;26.41;42.83;94371.28;4972477;28;7370;-62
2023/05/02 02:33:05;;;;;;;;;;;;;;;26.39;43.11;94363.56;4973213;28;9310;-62
2023/05/02 02:36:05;;;;;;;;;;;;;;;26.38;42.44;94361.31;4973037;28;7003;-62
2023/05/02 02:42:38;;;;;;;;;;;;;;;26.38;43.24;94362.03;4992382;28;9067;-62
2023/05/02 02:46:02;;;;;;;;;;;;;;;26.38;42.85;94372.34;4932546;29;9004;-62
2023/05/02 02:52:32;;;;;;;;;;;;;;;26.37;43.17;94374.34;4943487;28;7191;-62
2023/05/02 02:55:48;;;;;;;;;;;;;;;26.37;42.69;94381.88;4861303;29;7195;-62
2023/05/02 02:58:37;;;;;;;;;;;;;;;26.33;43.06;94376.66;4860810;29;9072;-62
2023/05/02 03:01:42;;;;;;;;;;;;;;;26.36;43.04;94381.13;4844765;29;7273;-62
2023/05/02 03:04:17;;;;;;;;;;;;;;;26.35;43.06;94382.41;4843264;29;9102;-62
2023/05/02 03:06:43;;;;;;;;;;;;;;;26.34;42.55;94380.88;4841819;29;7217;-62
2023/05/02 03:09:45;;;;;;;;;;;;;;;26.38;42.61;94383.38;4842569;29;9474;-62
2023/05/02 03:12:38;;;;;;;;;;;;;;;26.36;43.00;94389.38;4826676;29;8479;-62
2023/05/02 03:18:28;;;;;;;;;;;;;;;26.34;42.26;94382.91;4822068;29;9183;-62
2023/05/02 03:21:21;;;;;;;;;;;;;;;26.35;42.98;94395.44;4834330;29;7264;-63
2023/05/02 03:23:53;;;;;;;;;;;;;;;26.34;43.09;94389.16;4878663;29;7856;-62
2023/05/02 03:26:28;;;;;;;;;;;;;;;26.33;42.69;94392.44;4860900;29;7467;-62
2023/05/02 03:28:57;;;;;;;;;;;;;;;26.33;42.44;94400.72;4875443;29;7215;-62
2023/05/02 03:31:22;;;;;;;;;;;;;;;26.33;42.86;94395.97;4928966;28;7291;-62
2023/05/02 03:33:58;;;;;;;;;;;;;;;26.35;43.08;94395.44;4931094;29;10113;-62
2023/05/02 03:36:40;;;;;;;;;;;;;;;26.37;43.31;94395.66;4937399;29;9068;-62
2023/05/02 03:39:17;;;;;;;;;;;;;;;26.35;42.95;94400.94;4943997;28;7037;-62
2023/05/02 03:41:53;;;;;;;;;;;;;;;26.33;42.72;94398.72;4947833;28;7282;-62
2023/05/02 03:44:33;;;;;;;;;;;;;;;26.33;42.47;94403.47;4936928;28;7038;-62
2023/05/02 03:47:00;;;;;;;;;;;;;;;26.33;43.25;94414.50;4951103;28;9227;-63
2023/05/02 03:49:34;;;;;;;;;;;;;;;26.31;42.93;94408.75;5020107;28;7452;-63
2023/05/02 03:52:09;;;;;;;;;;;;;;;26.29;42.73;94414.78;5024507;28;7037;-62
2023/05/02 03:54:36;;;;;;;;;;;;;;;26.32;43.00;94418.53;5024342;28;8260;-62
2023/05/02 03:57:06;;;;;;;;;;;;;;;26.33;42.91;94409.00;5036905;28;8551;-62
2023/05/02 03:59:34;;;;;;;;;;;;;;;26.30;42.61;94421.03;5023067;28;8772;-62
2023/05/02 04:01:59;;;;;;;;;;;;;;;26.31;42.61;94422.53;5047396;28;8932;-62
2023/05/02 04:04:25;;;;;;;;;;;;;;;26.30;43.16;94419.03;5036626;28;7080;-62
2023/05/02 04:07:18;;;;;;;;;;;;;;;26.30;42.79;94418.28;5017071;28;7234;-62
2023/05/02 04:10:16;;;;;;;;;;;;;;;26.29;43.28;94422.31;5028552;28;9055;-62
2023/05/02 04:12:47;;;;;;;;;;;;;;;26.29;43.33;94430.59;5027261;28;9012;-62
2023/05/02 04:15:14;;;;;;;;;;;;;;;26.26;42.74;94423.34;5052331;28;8759;-62
2023/05/02 04:17:46;;;;;;;;;;;;;;;26.28;42.71;94423.56;5048023;28;7261;-62
2023/05/02 04:20:28;;;;;;;;;;;;;;;26.31;42.79;94425.31;5031643;28;8223;-62
2023/05/02 04:23:09;;;;;;;;;;;;;;;26.29;42.62;94433.34;5035633;28;8848;-63
2023/05/02 04:26:13;;;;;;;;;;;;;;;26.24;42.90;94436.88;5033415;28;7467;-62
2023/05/02 04:28:39;;;;;;;;;;;;;;;26.25;43.20;94441.16;5032053;28;8961;-62
2023/05/02 04:31:07;;;;;;;;;;;;;;;26.26;42.67;94442.63;5047387;28;7612;-62
2023/05/02 04:33:33;;;;;;;;;;;;;;;26.27;43.27;94439.38;5039009;28;7399;-62
2023/05/02 04:36:00;;;;;;;;;;;;;;;26.27;42.54;94444.91;5026933;28;8972;-63
2023/05/02 04:38:27;;;;;;;;;;;;;;;26.25;42.50;94454.94;5035486;28;9194;-62
2023/05/02 04:44:31;;;;;;;;;;;;;;;26.25;43.24;94452.19;5040450;28;9162;-62
2023/05/02 04:47:10;;;;;;;;;;;;;;;26.24;44.02;94451.44;5041742;28;7039;-62
2023/05/02 04:49:37;;;;;;;;;;;;;;;26.25;43.26;94457.69;5034380;28;8247;-63
2023/05/02 04:52:04;;;;;;;;;;;;;;;26.24;43.61;94456.19;5019638;28;9018;-62
2023/05/02 04:54:34;;;;;;;;;;;;;;;26.24;43.02;94461.69;5023810;28;7132;-63
2023/05/02 04:57:22;;;;;;;;;;;;;;;26.24;42.86;94478.25;5030933;28;7291;-62
2023/05/02 04:59:48;;;;;;;;;;;;;;;26.22;43.49;94464.22;5028846;28;7232;-62
2023/05/02 05:05:56;;;;;;;;;;;;;;;26.25;42.83;94475.00;5030265;28;7130;-62
2023/05/02 05:08:38;;;;;;;;;;;;;;;26.21;42.84;94476.53;5025506;28;9645;-63
2023/05/02 05:11:14;;;;;;;;;;;;;;;26.23;42.53;94482.28;5031905;28;7051;-62
2023/05/02 05:13:42;;;;;;;;;;;;;;;26.21;43.41;94479.28;5026724;28;7429;-62
2023/05/02 05:16:26;;;;;;;;;;;;;;;26.21;43.61;94474.50;5022973;28;8949;-62
2023/05/02 05:18:59;;;;;;;;;;;;;;;26.22;44.28;94478.75;5028539;28;7519;-62
2023/05/02 05:21:43;;;;;;;;;;;;;;;26.23;43.88;94476.75;5046909;28;7136;-62
2023/05/02 05:24:19;;;;;;;;;;;;;;;26.24;43.70;94489.28;5044636;28;7204;-63
2023/05/02 05:27:21;;;;;;;;;;;;;;;26.19;44.08;94496.31;5029590;28;7289;-62
2023/05/02 05:30:26;;;;;;;;;;;;;;;26.17;43.22;94502.34;4980454;28;7201;-63
2023/05/02 05:32:57;;;;;;;;;;;;;;;26.14;43.96;94499.88;4943111;28;9369;-62
2023/05/02 05:35:36;;;;;;;;;;;;;;;26.10;43.54;94491.13;4950227;28;8892;-63
2023/05/02 05:38:27;;;;;;;;;;;;;;;26.13;44.10;94512.91;4953447;28;9023;-61
2023/05/02 05:40:55;;;;;;;;;;;;;;;26.13;43.35;94510.16;4964585;28;7210;-62
2023/05/02 05:43:31;;;;;;;;;;;;;;;26.11;43.67;94509.91;4955261;28;9004;-62
2023/05/02 05:46:10;;;;;;;;;;;;;;;26.14;43.24;94517.16;4961207;28;7264;-62
2023/05/02 05:49:11;;;;;;;;;;;;;;;26.13;43.80;94520.44;4944739;28;7292;-62
2023/05/02 05:52:07;;;;;;;;;;;;;;;26.14;43.54;94527.44;4879158;29;7057;-63
2023/05/02 05:54:57;;;;;;;;;;;;;;;26.14;43.53;94536.44;4851793;29;7218;-62
2023/05/02 05:57:24;;;;;;;;;;;;;;;26.14;43.79;94524.69;4858791;29;9154;-63
2023/05/02 05:59:50;;;;;;;;;;;;;;;26.12;43.31;94533.44;4855895;29;7008;-63
2023/05/02 06:02:18;;;;;;;;;;;;;;;26.12;44.04;94535.47;4836723;29;9068;-63
2023/05/02 06:04:55;;;;;;;;;;;;;;;26.15;43.28;94548.22;4865940;29;7216;-63
2023/05/02 06:07:48;;;;;;;;;;;;;;;26.12;43.96;94544.47;4884821;29;8797;-63
2023/05/02 06:10:27;;;;;;;;;;;;;;;26.14;43.05;94550.22;4871831;29;7301;-63
2023/05/02 06:13:03;;;;;;;;;;;;;;;26.13;44.02;94553.50;4880381;29;7039;-64
2023/05/02 06:15:48;;;;;;;;;;;;;;;26.13;43.52;94557.03;4889410;29;9450;-62
2023/05/02 06:18:44;;;;;;;;;;;;;;;26.13;43.37;94557.03;4883759;29;9416;-62
2023/05/02 06:21:26;;;;;;;;;;;;;;;26.14;44.08;94561.25;4885581;29;6988;-63
2023/05/02 06:24:00;;;;;;;;;;;;;;;26.13;43.31;94564.53;4876240;29;9051;-62
2023/05/02 06:26:35;;;;;;;;;;;;;;;26.13;43.49;94567.28;4920485;29;7259;-62
2023/05/02 06:29:25;;;;;;;;;;;;;;;26.20;43.30;94572.25;4912904;29;7039;-62
2023/05/02 06:32:28;;;;;;;;;;;;;;;26.23;43.86;94565.00;5007630;28;8793;-63
2023/05/02 06:35:08;;;;;;;;;;;;;;;26.19;43.77;94575.53;5021579;28;7044;-62
2023/05/02 06:38:23;;;;;;;;;;;;;;;26.14;43.74;94577.81;5027515;28;9103;-63
2023/05/02 06:41:14;;;;;;;;;;;;;;;26.17;44.14;94568.53;4978005;28;9480;-62
2023/05/02 06:43:51;;;;;;;;;;;;;;;26.14;44.14;94579.81;4985974;28;8619;-62
2023/05/02 06:46:38;;;;;;;;;;;;;;;26.12;43.50;94577.56;4999772;28;8718;-62
2023/05/02 06:49:38;;;;;;;;;;;;;;;26.15;43.28;94584.06;4993273;28;9089;-62
2023/05/02 06:52:25;;;;;;;;;;;;;;;26.16;44.00;94574.56;4944816;28;9046;-62
2023/05/02 06:54:53;;;;;;;;;;;;;;;26.15;43.69;94586.81;4944464;28;9387;-62
2023/05/02 06:57:20;;;;;;;;;;;;;;;26.15;44.29;94592.34;4951216;28;9140;-62
2023/05/02 06:59:46;;;;;;;;;;;;;;;26.15;43.62;94590.34;4949901;28;9125;-62
2023/05/02 07:02:29;;;;;;;;;;;;;;;26.15;43.45;94590.34;4950318;28;7723;-62
2023/05/02 07:05:05;;;;;;;;;;;;;;;26.25;43.77;94588.03;4936728;28;7131;-63
2023/05/02 07:07:44;;;;;;;;;;;;;;;26.28;43.50;94595.28;4931129;28;7050;-62
2023/05/02 07:10:39;;;;;;;;;;;;;;;26.28;43.53;94597.28;4932444;28;9500;-63
2023/05/02 07:13:16;;;;;;;;;;;;;;;26.28;43.20;94595.28;4930792;28;8828;-63
2023/05/02 07:16:14;;;;;;;;;;;;;;;26.28;42.78;94600.03;4930400;29;7208;-63
2023/05/02 07:18:48;;;;;;;;;;;;;;;26.26;42.73;94597.03;4951792;28;8761;-63
2023/05/02 07:21:49;;;;;;;;;;;;;;;26.29;43.02;94599.53;4968146;28;8988;-63
2023/05/02 07:24:31;;;;;;;;;;;;;;;26.28;42.40;94600.78;4956321;28;7260;-64
2023/05/02 07:27:04;;;;;;;;;;;;;;;26.25;43.00;94606.59;4971676;28;7664;-63
2023/05/02 07:29:41;;;;;;;;;;;;;;;26.24;42.89;94610.59;5043807;28;9077;-63
2023/05/02 07:32:26;;;;;;;;;;;;;;;26.20;43.03;94605.34;5024861;28;7296;-62
2023/05/02 07:34:54;;;;;;;;;;;;;;;26.25;42.46;94606.59;5028102;28;9793;-62
2023/05/02 07:37:33;;;;;;;;;;;;;;;26.28;42.84;94611.06;5031563;28;7738;-63
2023/05/02 07:40:02;;;;;;;;;;;;;;;26.29;43.29;94607.06;5030421;28;7439;-63
2023/05/02 07:42:31;;;;;;;;;;;;;;;26.29;42.72;94607.81;5035530;28;9139;-63
2023/05/02 07:45:28;;;;;;;;;;;;;;;26.28;42.52;94608.31;5035988;28;6989;-63
2023/05/02 07:47:55;;;;;;;;;;;;;;;26.23;43.01;94609.09;5037489;28;9102;-62
2023/05/02 07:50:48;;;;;;;;;;;;;;;26.29;43.19;94607.81;5018303;28;7043;-63
2023/05/02 07:53:25;;;;;;;;;;;;;;;26.31;43.04;94601.78;4975779;28;8684;-63
2023/05/02 07:56:47;;;;;;;;;;;;;;;26.30;43.41;94601.03;4976419;28;9280;-62
2023/05/02 07:59:33;;;;;;;;;;;;;;;26.29;43.16;94612.56;4940683;28;7284;-62
2023/05/02 08:02:10;;;;;;;;;;;;;;;26.28;43.05;94611.81;4944108;28;7178;-62
2023/05/02 08:08:42;;;;;;;;;;;;;;;26.31;42.87;94610.06;4935668;28;9069;-63
2023/05/02 08:11:19;;;;;;;;;;;;;;;26.29;42.90;94607.81;4934433;29;7028;-62
2023/05/02 08:13:59;;;;;;;;;;;;;;;26.30;42.41;94608.53;4932187;29;7248;-63
2023/05/02 08:17:00;;;;;;;;;;;;;;;26.31;42.62;94610.06;4925188;29;9474;-62
2023/05/02 08:19:28;;;;;;;;;;;;;;;26.33;42.19;94613.03;4917284;29;9015;-63
2023/05/02 08:22:11;;;;;;;;;;;;;;;26.31;41.89;94612.81;4926770;29;7912;-62
2023/05/02 08:24:39;;;;;;;;;;;;;;;26.29;42.08;94615.34;4930205;29;7066;-63
2023/05/02 08:27:06;;;;;;;;;;;;;;;26.29;42.19;94616.09;4912276;29;9175;-63
2023/05/02 08:29:33;;;;;;;;;;;;;;;26.29;42.13;94607.06;4906543;28;7445;-63
2023/05/02 08:32:08;;;;;;;;;;;;;;;26.32;42.55;94611.56;4933126;28;7105;-63
2023/05/02 08:35:18;;;;;;;;;;;;;;;26.33;42.20;94615.81;4974256;28;8117;-63
2023/05/02 08:38:26;;;;;;;;;;;;;;;26.34;42.23;94623.56;4980183;28;7020;-63
2023/05/02 08:41:09;;;;;;;;;;;;;;;26.34;42.37;94622.84;4987234;28;9062;-63
2023/05/02 08:43:38;;;;;;;;;;;;;;;26.34;42.11;94623.56;4985824;28;7364;-63
2023/05/02 08:46:08;;;;;;;;;;;;;;;26.37;42.52;94627.31;4975085;28;7490;-63
2023/05/02 08:48:42;;;;;;;;;;;;;;;26.37;42.43;94630.06;5019265;28;7011;-63
2023/05/02 08:51:12;;;;;;;;;;;;;;;26.36;42.49;94634.81;5025392;28;7338;-62
2023/05/02 08:53:59;;;;;;;;;;;;;;;26.37;42.18;94639.09;5026250;28;7031;-62
2023/05/02 08:57:09;;;;;;;;;;;;;;;26.39;42.39;94633.06;5025337;28;9107;-63
2023/05/02 08:59:44;;;;;;;;;;;;;;;26.36;41.87;94640.34;5020544;28;7530;-62
2023/05/02 09:02:41;;;;;;;;;;;;;;;26.39;41.75;94638.56;5024788;28;7275;-62
2023/05/02 09:05:11;;;;;;;;;;;;;;;26.35;42.42;94640.88;5019454;28;9148;-62
2023/05/02 09:07:47;;;;;;;;;;;;;;;26.33;42.09;94643.38;5037522;28;9040;-63
2023/05/02 09:10:17;;;;;;;;;;;;;;;26.37;42.73;94644.63;5037926;28;7253;-63
2023/05/02 09:12:44;;;;;;;;;;;;;;;26.34;42.18;94648.38;5028149;28;6985;-63
2023/05/02 09:15:20;;;;;;;;;;;;;;;26.32;42.27;94645.38;5030398;28;6867;-63
2023/05/02 09:17:54;;;;;;;;;;;;;;;26.32;42.63;94650.16;5020325;28;7015;-63
2023/05/02 09:20:39;;;;;;;;;;;;;;;26.31;42.28;94654.16;5019253;28;7262;-63
2023/05/02 09:23:13;;;;;;;;;;;;;;;26.33;42.93;94646.91;5022800;28;7479;-63
2023/05/02 09:25:39;;;;;;;;;;;;;;;26.32;42.63;94653.66;5022069;28;7867;-63
2023/05/02 09:28:09;;;;;;;;;;;;;;;26.33;42.66;94657.94;5018033;28;9046;-63
2023/05/02 09:30:49;;;;;;;;;;;;;;;26.32;42.53;94658.44;5036175;28;7122;-63
2023/05/02 09:33:35;;;;;;;;;;;;;;;26.33;42.42;94657.16;5030001;28;7336;-63
2023/05/02 09:36:02;;;;;;;;;;;;;;;26.32;42.46;94648.13;5030028;28;9255;-63
2023/05/02 09:38:42;;;;;;;;;;;;;;;26.34;41.98;94650.41;5027610;28;7940;-62
2023/05/02 09:41:21;;;;;;;;;;;;;;;26.36;42.32;94653.41;5022204;28;9406;-63
2023/05/02 09:44:12;;;;;;;;;;;;;;;26.36;42.56;94640.34;5024777;28;7252;-62
2023/05/02 09:47:00;;;;;;;;;;;;;;;26.36;42.94;94651.38;5019038;28;9067;-63
2023/05/02 09:49:53;;;;;;;;;;;;;;;26.38;42.29;94642.59;5020838;28;8958;-63
2023/05/02 09:52:27;;;;;;;;;;;;;;;26.38;42.83;94648.84;5028301;28;7050;-63
2023/05/02 09:54:57;;;;;;;;;;;;;;;26.39;42.54;94652.38;5031734;28;7255;-62
2023/05/02 09:57:39;;;;;;;;;;;;;;;26.40;42.16;94662.91;5020959;28;7205;-63
2023/05/02 10:00:06;;;;;;;;;;;;;;;26.40;42.28;94651.13;5036773;28;7501;-62
2023/05/02 10:02:32;;;;;;;;;;;;;;;26.38;42.95;94656.41;5035675;28;7132;-62
2023/05/02 10:05:03;;;;;;;;;;;;;;;26.48;42.58;94663.09;5029670;28;7054;-62
2023/05/02 10:07:29;;;;;;;;;;;;;;;26.52;42.15;94660.81;5038043;28;7163;-62
2023/05/02 10:10:00;;;;;;;;;;;;;;;26.52;42.34;94660.81;5008980;28;9037;-63
2023/05/02 10:12:31;;;;;;;;;;;;;;;26.51;42.28;94656.56;5025066;28;7072;-62
2023/05/02 10:15:09;;;;;;;;;;;;;;;26.51;42.89;94649.03;5021540;28;7175;-62
2023/05/02 10:18:16;;;;;;;;;;;;;;;26.51;42.47;94651.78;5034753;28;8968;-63
2023/05/02 10:21:11;;;;;;;;;;;;;;;26.50;42.37;94649.56;5036823;28;8993;-63
2023/05/02 10:23:52;;;;;;;;;;;;;;;26.52;42.01;94658.81;5014453;28;7485;-63
2023/05/02 10:26:39;;;;;;;;;;;;;;;26.54;42.30;94663.81;5020555;28;7426;-63
2023/05/02 10:29:30;;;;;;;;;;;;;;;26.46;42.00;94655.34;5020404;28;7037;-62
2023/05/02 10:32:02;;;;;;;;;;;;;;;26.45;41.51;94662.09;5023715;28;7493;-62
2023/05/02 10:34:43;;;;;;;;;;;;;;;26.42;42.06;94654.88;5038755;28;9416;-63
2023/05/02 10:37:20;;;;;;;;;;;;;;;26.44;42.16;94659.88;5025489;28;7194;-63
2023/05/02 10:40:00;;;;;;;;;;;;;;;26.50;41.61;94658.59;5025757;28;8938;-63
2023/05/02 10:42:56;;;;;;;;;;;;;;;26.52;41.67;94658.81;5024525;28;7039;-63
2023/05/02 10:45:42;;;;;;;;;;;;;;;26.56;41.91;94653.78;4960232;28;8729;-63
2023/05/02 10:48:25;;;;;;;;;;;;;;;26.55;41.81;94654.28;4961575;28;9352;-63
2023/05/02 10:51:03;;;;;;;;;;;;;;;26.59;41.67;94663.81;4975233;28;7302;-63
2023/05/02 10:53:42;;;;;;;;;;;;;;;26.59;41.59;94652.75;4983506;28;9076;-63
2023/05/02 10:56:20;;;;;;;;;;;;;;;26.60;42.07;94657.00;4971649;28;7050;-62
2023/05/02 10:59:41;;;;;;;;;;;;;;;26.61;42.20;94660.53;4978224;28;7299;-62
2023/05/02 11:02:23;;;;;;;;;;;;;;;26.63;41.60;94649.72;4972628;28;7280;-62
2023/05/02 11:05:02;;;;;;;;;;;;;;;26.62;41.31;94645.47;4970737;28;7319;-62
2023/05/02 11:07:36;;;;;;;;;;;;;;;26.65;41.82;94647.19;4971568;28;7071;-63
2023/05/02 11:10:17;;;;;;;;;;;;;;;26.63;41.73;94642.19;4976357;28;9083;-62
2023/05/02 11:12:53;;;;;;;;;;;;;;;26.63;41.62;94642.19;4957954;28;8999;-63
2023/05/02 11:15:28;;;;;;;;;;;;;;;26.64;41.70;94640.91;4967158;28;9093;-62
2023/05/02 11:18:13;;;;;;;;;;;;;;;26.64;42.17;94637.44;4955848;28;9071;-62
2023/05/02 11:20:41;;;;;;;;;;;;;;;26.65;41.90;94638.91;4960363;28;7445;-62
2023/05/02 11:23:35;;;;;;;;;;;;;;;26.65;42.09;94639.69;5025590;28;8523;-63
2023/05/02 11:26:22;;;;;;;;;;;;;;;26.65;41.49;94638.91;5041068;28;7115;-62
2023/05/02 11:28:48;;;;;;;;;;;;;;;26.65;42.03;94636.16;5025407;28;7658;-62
2023/05/02 11:31:28;;;;;;;;;;;;;;;26.66;41.93;94640.44;5040243;28;7907;-62
2023/05/02 11:34:02;;;;;;;;;;;;;;;26.67;41.73;94633.63;5021150;28;7295;-62
2023/05/02 11:36:35;;;;;;;;;;;;;;;26.69;41.82;94642.91;5026966;28;7853;-62
2023/05/02 11:39:04;;;;;;;;;;;;;;;26.70;41.60;94636.13;5024110;28;7292;-62
2023/05/02 11:42:07;;;;;;;;;;;;;;;26.71;41.64;94632.09;5039546;28;7345;-63
2023/05/02 11:45:17;;;;;;;;;;;;;;;26.70;41.65;94625.09;5017254;28;9043;-63
2023/05/02 11:47:56;;;;;;;;;;;;;;;26.68;41.34;94633.16;5031780;28;7055;-62
2023/05/02 11:50:31;;;;;;;;;;;;;;;26.70;41.32;94635.38;5026111;28;8780;-62
2023/05/02 11:53:11;;;;;;;;;;;;;;;26.71;41.34;94628.59;5024729;28;7551;-62
2023/05/02 11:55:47;;;;;;;;;;;;;;;26.70;41.26;94627.84;5014597;28;9085;-63
2023/05/02 11:58:15;;;;;;;;;;;;;;;26.66;41.69;94629.41;5029004;28;7042;-62
2023/05/02 12:00:46;;;;;;;;;;;;;;;26.68;41.30;94624.88;5035441;28;9659;-62
2023/05/02 12:03:36;;;;;;;;;;;;;;;26.67;41.79;94620.59;5030342;28;7377;-62
2023/05/02 12:06:14;;;;;;;;;;;;;;;26.70;41.41;94625.09;5042994;28;7339;-62
2023/05/02 12:08:43;;;;;;;;;;;;;;;26.70;41.18;94627.09;5037759;28;9081;-62
2023/05/02 12:11:16;;;;;;;;;;;;;;;26.73;41.59;94623.38;5040170;28;7031;-62
2023/05/02 12:13:47;;;;;;;;;;;;;;;26.74;41.60;94633.88;5027122;28;9023;-63
2023/05/02 12:16:13;;;;;;;;;;;;;;;26.72;41.50;94632.84;5014513;28;9417;-63
2023/05/02 12:18:41;;;;;;;;;;;;;;;26.76;41.52;94641.63;5022538;28;8532;-63
2023/05/02 12:21:12;;;;;;;;;;;;;;;26.76;41.54;94636.88;5021155;28;9240;-62
2023/05/02 12:23:40;;;;;;;;;;;;;;;26.78;41.40;94641.88;5024685;28;9203;-62
2023/05/02 12:26:29;;;;;;;;;;;;;;;26.78;41.25;94639.09;5024254;28;6987;-63
2023/05/02 12:29:01;;;;;;;;;;;;;;;26.78;41.15;94639.09;5025759;28;8911;-63
2023/05/02 12:31:36;;;;;;;;;;;;;;;26.80;41.26;94639.34;5025716;28;7311;-63
2023/05/02 12:34:06;;;;;;;;;;;;;;;26.80;41.38;94644.88;5026220;28;8906;-62
2023/05/02 12:36:43;;;;;;;;;;;;;;;26.85;41.63;94646.84;5030636;28;7299;-63
2023/05/02 12:39:10;;;;;;;;;;;;;;;26.84;41.42;94642.56;5025058;28;7450;-62
2023/05/02 12:41:42;;;;;;;;;;;;;;;26.88;41.09;94646.56;5041036;28;9292;-62
2023/05/02 12:44:13;;;;;;;;;;;;;;;26.90;41.72;94633.00;5024025;28;8782;-62
2023/05/02 12:47:17;;;;;;;;;;;;;;;26.92;41.39;94635.97;5015141;28;7276;-63
2023/05/02 12:49:55;;;;;;;;;;;;;;;26.94;40.88;94638.25;5035900;28;7220;-63
2023/05/02 12:52:47;;;;;;;;;;;;;;;26.95;41.59;94636.25;5021830;28;7018;-62
2023/05/02 12:55:27;;;;;;;;;;;;;;;26.97;41.34;94631.69;5000789;28;7049;-62
2023/05/02 12:58:06;;;;;;;;;;;;;;;26.98;41.50;94633.19;4998596;28;7363;-63
2023/05/02 13:00:37;;;;;;;;;;;;;;;27.01;42.15;94642.47;4993826;28;8292;-63
2023/05/02 13:03:13;;;;;;;;;;;;;;;27.02;41.43;94639.19;5002482;28;7238;-62
2023/05/02 13:05:53;;;;;;;;;;;;;;;27.03;42.20;94643.44;4996096;28;8945;-63
2023/05/02 13:08:20;;;;;;;;;;;;;;;27.01;41.71;94634.94;4999764;28;9034;-63
2023/05/02 13:10:46;;;;;;;;;;;;;;;27.02;41.29;94641.19;4991975;28;7037;-63
2023/05/02 13:13:32;;;;;;;;;;;;;;;26.99;41.78;94634.69;5001173;28;8936;-63
2023/05/02 13:16:22;;;;;;;;;;;;;;;26.98;41.90;94638.72;4987309;28;7256;-63
2023/05/02 13:19:08;;;;;;;;;;;;;;;26.96;41.90;94638.47;4988747;28;8972;-62
2023/05/02 13:22:12;;;;;;;;;;;;;;;26.98;41.87;94644.22;4987671;28;7451;-62
2023/05/02 13:24:53;;;;;;;;;;;;;;;26.98;42.00;94649.00;4981478;28;9040;-62
2023/05/02 13:27:22;;;;;;;;;;;;;;;26.97;41.94;94639.97;4994398;28;9001;-63
2023/05/02 13:30:05;;;;;;;;;;;;;;;26.99;41.15;94640.19;5004823;28;9045;-63
2023/05/02 13:33:00;;;;;;;;;;;;;;;26.99;41.49;94629.16;5009164;28;9103;-63
2023/05/02 13:35:38;;;;;;;;;;;;;;;26.98;41.36;94621.41;4990166;28;9277;-63
2023/05/02 13:38:28;;;;;;;;;;;;;;;27.01;41.92;94634.94;4997085;28;9034;-63
2023/05/02 13:41:08;;;;;;;;;;;;;;;27.01;41.53;94623.13;4995118;28;7011;-63
2023/05/02 13:43:50;;;;;;;;;;;;;;;27.04;41.92;94628.38;5013545;28;8959;-64
2023/05/02 13:46:43;;;;;;;;;;;;;;;27.05;42.13;94627.13;4997779;28;7054;-63
2023/05/02 13:49:27;;;;;;;;;;;;;;;27.03;42.07;94629.66;5003604;28;8683;-63
2023/05/02 13:52:12;;;;;;;;;;;;;;;27.04;42.13;94627.63;5004079;28;7438;-64
2023/05/02 13:54:40;;;;;;;;;;;;;;;27.04;41.63;94641.41;5001683;28;8986;-64
2023/05/02 13:57:07;;;;;;;;;;;;;;;27.07;41.97;94643.16;5005657;28;8959;-63
2023/05/02 14:00:08;;;;;;;;;;;;;;;27.07;41.87;94643.91;5004021;28;7461;-63
2023/05/02 14:02:35;;;;;;;;;;;;;;;27.06;41.67;94645.16;4950011;28;7252;-63
2023/05/02 14:05:01;;;;;;;;;;;;;;;27.05;42.10;94649.19;4951424;28;8742;-63
2023/05/02 14:07:28;;;;;;;;;;;;;;;27.02;42.18;94647.47;4958573;28;9034;-63
2023/05/02 14:09:55;;;;;;;;;;;;;;;27.04;42.75;94646.94;4949721;28;6996;-64
2023/05/02 14:12:21;;;;;;;;;;;;;;;26.96;42.26;94646.00;4936945;28;9795;-64
2023/05/02 14:14:50;;;;;;;;;;;;;;;26.98;42.33;94652.50;4931789;28;7223;-63
2023/05/02 14:17:16;;;;;;;;;;;;;;;26.96;42.06;94638.47;4946692;28;8181;-64
2023/05/02 14:19:42;;;;;;;;;;;;;;;27.01;42.41;94650.75;4933708;28;9335;-63
2023/05/02 14:22:13;;;;;;;;;;;;;;;27.00;42.24;94644.47;4932955;28;7090;-64
2023/05/02 14:24:41;;;;;;;;;;;;;;;26.99;42.06;94645.00;4943971;28;8023;-64
2023/05/02 14:27:11;;;;;;;;;;;;;;;26.98;41.90;94640.72;4940089;28;7109;-64